createdAt,value
2022-11-24T00:00:52.574Z,2.14
2022-11-24T00:03:18.897Z,2.19
2022-11-24T00:05:45.180Z,2.23
2022-11-24T00:08:11.669Z,2.25
2022-11-24T00:10:37.867Z,2.16
2022-11-24T00:13:04.090Z,2.18
2022-11-24T00:15:30.300Z,2.27
2022-11-24T00:17:56.508Z,2.30
2022-11-24T00:20:22.718Z,2.30
2022-11-24T00:22:48.938Z,2.26
2022-11-24T00:25:15.152Z,2.16
2022-11-24T00:27:41.365Z,2.14
2022-11-24T00:30:07.832Z,2.16
2022-11-24T00:32:34.032Z,2.24
2022-11-24T00:35:00.230Z,2.24
2022-11-24T00:37:26.448Z,2.14
2022-11-24T00:39:52.649Z,2.15
2022-11-24T00:42:18.868Z,2.23
2022-11-24T00:44:45.061Z,2.21
2022-11-24T00:47:11.456Z,2.23
2022-11-24T00:49:37.737Z,2.18
2022-11-24T00:52:03.993Z,2.08
2022-11-24T00:54:30.277Z,2.03
2022-11-24T00:56:56.601Z,2.05
2022-11-24T00:59:22.809Z,2.08
2022-11-24T01:01:49.083Z,2.14
2022-11-24T01:04:15.326Z,2.11
2022-11-24T01:06:41.524Z,2.14
2022-11-24T01:09:07.733Z,2.18
2022-11-24T01:11:34.713Z,2.15
2022-11-24T01:14:00.916Z,2.11
2022-11-24T01:16:31.182Z,2.13
2022-11-24T01:18:57.400Z,2.11
2022-11-24T01:21:23.604Z,2.16
2022-11-24T01:23:49.807Z,2.23
2022-11-24T01:26:16.760Z,2.25
2022-11-24T01:28:47.146Z,2.19
2022-11-24T01:31:13.927Z,2.27
2022-11-24T01:33:40.150Z,2.19
2022-11-24T01:36:06.348Z,2.18
2022-11-24T01:38:32.574Z,2.23
2022-11-24T01:41:02.874Z,2.26
2022-11-24T01:43:29.112Z,2.25
2022-11-24T01:45:55.414Z,2.29
2022-11-24T01:48:29.224Z,2.33
2022-11-24T01:50:58.425Z,2.28
2022-11-24T01:53:24.632Z,2.28
2022-11-24T01:55:50.843Z,2.33
2022-11-24T01:58:21.372Z,2.35
2022-11-24T02:00:47.569Z,2.32
2022-11-24T02:03:14.331Z,2.30
2022-11-24T02:05:41.936Z,2.40
2022-11-24T02:08:10.136Z,2.32
2022-11-24T02:10:36.332Z,2.31
2022-11-24T02:13:02.541Z,2.28
2022-11-24T02:15:28.883Z,2.25
2022-11-24T02:17:55.185Z,2.34
2022-11-24T02:20:21.409Z,2.34
2022-11-24T02:22:53.111Z,2.40
2022-11-24T02:25:25.435Z,2.37
2022-11-24T02:27:54.092Z,2.39
2022-11-24T02:30:20.567Z,2.37
2022-11-24T02:32:46.774Z,2.43
2022-11-24T02:35:13.209Z,2.41
2022-11-24T02:37:39.413Z,2.33
2022-11-24T02:40:05.892Z,2.28
2022-11-24T02:42:33.296Z,2.20
2022-11-24T02:44:59.785Z,2.29
2022-11-24T02:47:25.993Z,2.29
2022-11-24T02:49:52.210Z,2.34
2022-11-24T02:52:18.408Z,2.32
2022-11-24T02:54:44.614Z,2.21
2022-11-24T02:57:10.832Z,2.20
2022-11-24T02:59:37.117Z,2.24
2022-11-24T03:02:03.377Z,2.22
2022-11-24T03:04:29.678Z,2.23
2022-11-24T03:06:55.883Z,2.25
2022-11-24T03:09:22.090Z,2.30
2022-11-24T03:11:48.302Z,2.36
2022-11-24T03:14:14.516Z,2.39
2022-11-24T03:16:40.713Z,2.41
2022-11-24T03:19:06.925Z,2.42
2022-11-24T03:21:33.121Z,2.46
2022-11-24T03:23:59.323Z,2.48
2022-11-24T03:26:25.550Z,2.47
2022-11-24T03:28:55.050Z,2.39
2022-11-24T03:31:21.296Z,2.50
2022-11-24T03:33:47.730Z,2.52
2022-11-24T03:36:13.924Z,2.49
2022-11-24T03:38:40.138Z,2.51
2022-11-24T03:41:06.343Z,2.47
2022-11-24T03:43:32.567Z,2.55
2022-11-24T03:45:58.839Z,2.51
2022-11-24T03:48:25.073Z,2.52
2022-11-24T03:50:58.123Z,2.51
2022-11-24T03:53:24.816Z,2.48
2022-11-24T03:55:51.032Z,2.56
2022-11-24T03:58:17.232Z,2.57
2022-11-24T04:00:43.452Z,2.58
2022-11-24T04:03:09.690Z,2.61
2022-11-24T04:05:35.971Z,2.62
2022-11-24T04:08:02.591Z,2.62
2022-11-24T04:10:29.004Z,2.66
2022-11-24T04:12:55.206Z,2.63
2022-11-24T04:15:21.544Z,2.66
2022-11-24T04:17:47.978Z,2.73
2022-11-24T04:20:14.343Z,2.68
2022-11-24T04:22:40.552Z,2.76
2022-11-24T04:25:07.182Z,2.73
2022-11-24T04:27:33.594Z,2.71
2022-11-24T04:29:59.817Z,2.68
2022-11-24T04:32:26.025Z,2.67
2022-11-24T04:34:52.237Z,2.69
2022-11-24T04:37:18.446Z,2.69
2022-11-24T04:39:44.648Z,2.72
2022-11-24T04:42:10.853Z,2.78
2022-11-24T04:44:37.324Z,2.78
2022-11-24T04:47:03.729Z,2.78
2022-11-24T04:49:30.009Z,2.83
2022-11-24T04:51:56.214Z,2.78
2022-11-24T04:54:22.424Z,2.78
2022-11-24T04:56:51.816Z,2.79
2022-11-24T04:59:18.119Z,2.83
2022-11-24T05:01:44.732Z,2.79
2022-11-24T05:04:11.364Z,2.81
2022-11-24T05:06:37.876Z,2.85
2022-11-24T05:09:04.200Z,2.85
2022-11-24T05:11:30.417Z,2.84
2022-11-24T05:13:56.631Z,2.81
2022-11-24T05:16:22.893Z,2.84
2022-11-24T05:18:49.108Z,2.88
2022-11-24T05:21:15.324Z,2.89
2022-11-24T05:23:41.515Z,2.90
2022-11-24T05:26:07.740Z,2.88
2022-11-24T05:28:33.939Z,2.85
2022-11-24T05:31:00.715Z,2.86
2022-11-24T05:33:27.032Z,2.84
2022-11-24T05:35:53.236Z,2.79
2022-11-24T05:38:19.442Z,2.79
2022-11-24T05:40:45.652Z,2.79
2022-11-24T05:43:12.339Z,2.85
2022-11-24T05:45:38.559Z,2.85
2022-11-24T05:48:05.529Z,2.84
2022-11-24T05:50:31.753Z,2.81
2022-11-24T05:53:01.446Z,2.73
2022-11-24T05:55:27.655Z,2.71
2022-11-24T05:58:00.290Z,2.76
2022-11-24T06:00:26.509Z,2.78
2022-11-24T06:02:52.786Z,2.78
2022-11-24T06:05:19.043Z,2.87
2022-11-24T06:07:45.324Z,2.89
2022-11-24T06:10:11.563Z,2.92
2022-11-24T06:12:37.766Z,2.88
2022-11-24T06:15:04.112Z,2.91
2022-11-24T06:17:30.329Z,2.95
2022-11-24T06:19:56.550Z,2.94
2022-11-24T06:22:22.772Z,2.97
2022-11-24T06:24:48.968Z,2.94
2022-11-24T06:27:15.175Z,2.94
2022-11-24T06:29:41.398Z,2.97
2022-11-24T06:32:07.662Z,3.04
2022-11-24T06:34:34.204Z,3.07
2022-11-24T06:37:00.625Z,3.02
2022-11-24T06:39:26.826Z,3.04
2022-11-24T06:41:53.045Z,3.07
2022-11-24T06:44:19.257Z,2.98
2022-11-24T06:46:45.471Z,3.00
2022-11-24T06:49:11.673Z,2.89
2022-11-24T06:51:37.875Z,2.83
2022-11-24T06:54:07.469Z,2.82
2022-11-24T06:56:33.718Z,2.88
2022-11-24T06:59:00.045Z,2.80
2022-11-24T07:01:26.812Z,2.78
2022-11-24T07:03:53.366Z,2.84
2022-11-24T07:06:19.725Z,2.88
2022-11-24T07:08:46.109Z,2.91
2022-11-24T07:11:14.347Z,2.96
2022-11-24T07:13:40.557Z,3.01
2022-11-24T07:16:12.970Z,2.95
2022-11-24T07:18:39.239Z,2.98
2022-11-24T07:21:05.518Z,3.07
2022-11-24T07:23:31.709Z,3.05
2022-11-24T07:26:00.178Z,3.07
2022-11-24T07:28:29.961Z,3.07
2022-11-24T07:30:56.184Z,3.12
2022-11-24T07:33:22.447Z,3.11
2022-11-24T07:35:48.668Z,3.10
2022-11-24T07:38:14.877Z,3.14
2022-11-24T07:40:41.088Z,3.14
2022-11-24T07:43:07.281Z,3.18
2022-11-24T07:45:33.517Z,3.11
2022-11-24T07:47:59.751Z,3.13
2022-11-24T07:50:26.030Z,3.22
2022-11-24T07:52:52.268Z,3.23
2022-11-24T07:55:18.491Z,3.21
2022-11-24T07:57:44.712Z,3.32
2022-11-24T08:00:11.255Z,3.31
2022-11-24T08:02:37.480Z,3.34
2022-11-24T08:05:03.746Z,3.36
2022-11-24T08:07:29.990Z,3.43
2022-11-24T08:09:56.197Z,3.45
2022-11-24T08:12:22.428Z,3.45
2022-11-24T08:14:49.263Z,3.47
2022-11-24T08:17:15.485Z,3.50
2022-11-24T08:19:41.684Z,3.49
2022-11-24T08:22:07.885Z,3.50
2022-11-24T08:24:34.259Z,3.50
2022-11-24T08:27:00.618Z,3.51
2022-11-24T08:29:30.102Z,3.47
2022-11-24T08:31:56.591Z,3.51
2022-11-24T08:34:23.931Z,3.56
2022-11-24T08:36:50.575Z,3.61
2022-11-24T08:39:16.818Z,3.66
2022-11-24T08:41:43.022Z,3.70
2022-11-24T08:44:09.234Z,3.74
2022-11-24T08:46:35.540Z,3.74
2022-11-24T08:49:01.813Z,3.79
2022-11-24T08:51:28.016Z,3.82
2022-11-24T08:53:57.407Z,3.80
2022-11-24T08:56:23.725Z,3.74
2022-11-24T08:58:50.027Z,3.75
2022-11-24T09:01:16.532Z,3.74
2022-11-24T09:03:48.519Z,3.75
2022-11-24T09:06:16.753Z,3.81
2022-11-24T09:08:42.969Z,3.78
2022-11-24T09:11:09.913Z,3.73
2022-11-24T09:13:36.390Z,3.73
2022-11-24T09:16:03.328Z,3.78
2022-11-24T09:18:30.502Z,3.83
2022-11-24T09:21:05.757Z,3.90
2022-11-24T09:23:31.981Z,3.90
2022-11-24T09:26:02.986Z,3.91
2022-11-24T09:28:29.279Z,3.96
2022-11-24T09:30:55.566Z,3.96
2022-11-24T09:33:21.830Z,4.01
2022-11-24T09:35:49.654Z,4.03
2022-11-24T09:38:15.892Z,4.03
2022-11-24T09:40:42.108Z,4.06
2022-11-24T09:43:08.338Z,4.06
2022-11-24T09:46:11.193Z,4.15
2022-11-24T09:48:41.326Z,4.10
2022-11-24T09:51:09.494Z,4.11
2022-11-24T09:53:49.208Z,4.22
2022-11-24T09:56:22.211Z,4.15
2022-11-24T09:58:49.194Z,4.16
2022-11-24T10:01:17.153Z,4.13
2022-11-24T10:03:49.759Z,4.13
2022-11-24T10:06:18.788Z,4.16
2022-11-24T10:08:45.061Z,4.24
2022-11-24T10:11:19.783Z,4.29
2022-11-24T10:14:08.390Z,4.32
2022-11-24T10:16:44.277Z,4.29
2022-11-24T10:19:36.420Z,4.31
2022-11-24T10:22:09.056Z,4.32
2022-11-24T10:24:51.737Z,4.39
2022-11-24T10:27:18.566Z,4.38
2022-11-24T10:29:45.054Z,4.43
2022-11-24T10:32:15.956Z,4.40
2022-11-24T10:34:43.664Z,4.50
2022-11-24T10:37:18.112Z,4.56
2022-11-24T10:39:44.268Z,4.58
2022-11-24T10:42:29.281Z,4.62
2022-11-24T10:44:59.017Z,4.60
2022-11-24T10:47:25.217Z,4.60
2022-11-24T10:49:54.137Z,4.63
2022-11-24T10:52:20.361Z,4.57
2022-11-24T10:54:56.661Z,4.58
2022-11-24T10:57:32.912Z,4.59
2022-11-24T10:59:59.348Z,4.63
2022-11-24T11:02:29.579Z,4.68
2022-11-24T11:04:55.849Z,4.71
2022-11-24T11:07:22.988Z,4.80
2022-11-24T11:09:49.238Z,4.82
2022-11-24T11:15:29.513Z,4.91
2022-11-24T11:17:56.744Z,4.96
2022-11-24T11:20:26.318Z,5.02
2022-11-24T11:22:52.525Z,5.03
2022-11-24T11:25:20.105Z,5.07
2022-11-24T11:27:46.313Z,5.06
2022-11-24T11:35:47.875Z,5.11
2022-11-24T11:38:14.081Z,5.12
2022-11-24T11:40:40.288Z,5.07
2022-11-24T11:43:10.065Z,4.97
2022-11-24T11:45:36.910Z,4.99
2022-11-24T11:48:03.209Z,4.94
2022-11-24T11:50:52.995Z,4.98
2022-11-24T11:53:29.515Z,5.00
2022-11-24T11:56:01.694Z,5.01
2022-11-24T11:58:34.010Z,5.03
2022-11-24T12:01:05.900Z,5.08
2022-11-24T12:03:35.142Z,5.12
2022-11-24T12:06:06.050Z,5.15
2022-11-24T12:09:26.282Z,5.11
2022-11-24T12:11:58.531Z,5.19
2022-11-24T12:14:53.799Z,5.25
2022-11-24T12:17:34.568Z,5.23
2022-11-24T12:20:13.321Z,5.29
2022-11-24T12:22:42.542Z,5.29
2022-11-24T12:25:24.364Z,5.36
2022-11-24T12:27:54.245Z,5.41
2022-11-24T12:30:20.635Z,5.51
2022-11-24T12:33:02.138Z,5.60
2022-11-24T12:35:40.245Z,5.66
2022-11-24T12:38:15.757Z,5.57
2022-11-24T12:43:50.911Z,5.59
2022-11-24T12:46:36.055Z,5.61
2022-11-24T12:49:11.109Z,5.65
2022-11-24T12:51:41.345Z,5.65
2022-11-24T12:54:10.340Z,5.59
2022-11-24T12:56:43.446Z,5.54
2022-11-24T12:59:18.052Z,5.48
2022-11-24T13:01:47.501Z,5.49
2022-11-24T13:04:17.909Z,5.50
2022-11-24T13:06:49.433Z,5.48
2022-11-24T13:09:16.017Z,5.47
2022-11-24T13:11:43.006Z,5.47
2022-11-24T13:14:16.099Z,5.48
2022-11-24T13:20:05.750Z,5.47
2022-11-24T13:22:31.953Z,5.38
2022-11-24T13:25:11.441Z,5.41
2022-11-24T13:27:41.655Z,5.46
2022-11-24T13:30:28.246Z,5.45
2022-11-24T13:33:01.153Z,5.48
2022-11-24T13:35:27.382Z,5.52
2022-11-24T13:37:53.607Z,5.54
2022-11-24T13:40:23.018Z,5.55
2022-11-24T13:42:55.492Z,5.58
2022-11-24T13:45:34.458Z,5.59
2022-11-24T13:48:00.661Z,5.61
2022-11-24T13:50:45.397Z,5.60
2022-11-24T13:53:15.357Z,5.65
2022-11-24T13:55:41.557Z,5.63
2022-11-24T13:58:13.901Z,5.64
2022-11-24T14:00:58.722Z,5.66
2022-11-24T14:03:32.130Z,5.63
2022-11-24T14:05:58.334Z,5.62
2022-11-24T14:08:24.525Z,5.61
2022-11-24T14:10:50.725Z,5.62
2022-11-24T14:13:16.883Z,5.61
2022-11-24T14:15:43.132Z,5.63
2022-11-24T14:18:29.618Z,5.58
2022-11-24T14:20:56.133Z,5.57
2022-11-24T14:23:22.361Z,5.56
2022-11-24T14:25:48.897Z,5.54
2022-11-24T14:28:15.328Z,5.58
2022-11-24T14:30:41.604Z,5.58
2022-11-24T14:33:10.076Z,5.56
2022-11-24T14:35:42.574Z,5.53
2022-11-24T14:38:08.788Z,5.53
2022-11-24T14:40:51.100Z,5.54
2022-11-24T14:43:18.763Z,5.52
2022-11-24T14:45:48.988Z,5.50
2022-11-24T14:48:16.037Z,5.50
2022-11-24T14:50:42.336Z,5.50
2022-11-24T14:53:10.998Z,5.47
2022-11-24T14:55:37.199Z,5.48
2022-11-24T14:58:03.413Z,5.44
2022-11-24T15:00:30.490Z,5.44
2022-11-24T15:03:05.895Z,5.45
2022-11-24T15:05:51.340Z,5.43
2022-11-24T15:08:17.545Z,5.41
2022-11-24T15:10:43.743Z,5.41
2022-11-24T15:13:16.933Z,5.45
2022-11-24T15:15:45.903Z,5.42
2022-11-24T15:18:29.780Z,5.38
2022-11-24T15:20:55.990Z,5.31
2022-11-24T15:23:26.318Z,5.27
2022-11-24T15:26:12.763Z,5.23
2022-11-24T15:28:38.981Z,5.24
2022-11-24T15:31:05.946Z,5.23
2022-11-24T15:33:32.222Z,5.23
2022-11-24T15:35:59.021Z,5.24
2022-11-24T15:38:25.222Z,5.28
2022-11-24T15:40:52.066Z,5.30
2022-11-24T15:43:19.407Z,5.30
2022-11-24T15:45:45.601Z,5.31
2022-11-24T15:48:17.537Z,5.32
2022-11-24T15:50:44.540Z,5.34
2022-11-24T15:53:15.520Z,5.33
2022-11-24T15:55:41.727Z,5.29
2022-11-24T15:58:08.566Z,5.30
2022-11-24T16:00:34.829Z,5.27
2022-11-24T16:03:18.040Z,5.32
2022-11-24T16:05:47.657Z,5.33
2022-11-24T16:08:14.343Z,5.32
2022-11-24T16:10:40.624Z,5.30
2022-11-24T16:13:06.840Z,5.27
2022-11-24T16:15:33.057Z,5.27
2022-11-24T16:17:59.271Z,5.30
2022-11-24T16:20:25.494Z,5.29
2022-11-24T16:22:51.700Z,5.26
2022-11-24T16:25:17.940Z,5.27
2022-11-24T16:27:44.154Z,5.24
2022-11-24T16:30:10.760Z,5.24
2022-11-24T16:32:36.961Z,5.21
2022-11-24T16:35:03.408Z,5.19
2022-11-24T16:37:29.614Z,5.22
2022-11-24T16:39:55.832Z,5.24
2022-11-24T16:42:22.036Z,5.25
2022-11-24T16:44:48.257Z,5.20
2022-11-24T16:47:14.474Z,5.22
2022-11-24T16:49:40.676Z,5.19
2022-11-24T16:52:06.881Z,5.23
2022-11-24T16:54:33.497Z,5.20
2022-11-24T16:56:59.877Z,5.21
2022-11-24T16:59:26.083Z,5.19
2022-11-24T17:01:52.421Z,5.16
2022-11-24T17:04:18.742Z,5.17
2022-11-24T17:06:44.948Z,5.16
2022-11-24T17:09:11.163Z,5.17
2022-11-24T17:11:37.379Z,5.17
2022-11-24T17:14:03.583Z,5.13
2022-11-24T17:16:29.906Z,5.12
2022-11-24T17:18:56.143Z,5.18
2022-11-24T17:21:23.012Z,5.20
2022-11-24T17:23:52.787Z,5.20
2022-11-24T17:26:19.006Z,5.24
2022-11-24T17:28:45.204Z,5.24
2022-11-24T17:31:20.025Z,5.19
2022-11-24T17:33:46.258Z,5.21
2022-11-24T17:36:12.476Z,5.18
2022-11-24T17:38:38.687Z,5.12
2022-11-24T17:41:04.935Z,5.10
2022-11-24T17:43:31.153Z,5.12
2022-11-24T17:45:59.198Z,5.09
2022-11-24T17:48:25.488Z,5.04
2022-11-24T17:50:58.484Z,5.03
2022-11-24T17:53:24.681Z,5.01
2022-11-24T17:55:50.895Z,5.02
2022-11-24T17:58:17.092Z,5.03
2022-11-24T18:00:43.385Z,5.02
2022-11-24T18:03:09.615Z,5.02
2022-11-24T18:05:36.003Z,4.94
2022-11-24T18:08:02.253Z,4.86
2022-11-24T18:10:28.463Z,4.86
2022-11-24T18:12:54.678Z,4.79
2022-11-24T18:15:20.888Z,4.77
2022-11-24T18:17:47.086Z,4.74
2022-11-24T18:20:13.338Z,4.62
2022-11-24T18:25:25.748Z,4.43
2022-11-24T18:27:51.946Z,4.38
2022-11-24T18:30:18.148Z,4.25
2022-11-24T18:32:44.348Z,4.17
2022-11-24T18:35:10.565Z,4.10
2022-11-24T18:37:36.764Z,4.09
2022-11-24T18:40:03.007Z,4.09
2022-11-24T18:42:29.233Z,4.04
2022-11-24T18:44:55.441Z,3.96
2022-11-24T18:47:21.650Z,3.94
2022-11-24T18:49:47.842Z,3.95
2022-11-24T18:52:14.045Z,3.92
2022-11-24T18:54:40.236Z,3.87
2022-11-24T18:57:06.437Z,3.87
2022-11-24T18:59:32.635Z,3.85
2022-11-24T19:01:58.859Z,3.87
2022-11-24T19:04:25.106Z,3.83
2022-11-24T19:06:51.324Z,3.79
2022-11-24T19:09:17.695Z,3.74
2022-11-24T19:11:44.296Z,3.77
2022-11-24T19:14:11.950Z,3.72
2022-11-24T19:16:38.275Z,3.66
2022-11-24T19:19:04.566Z,3.53
2022-11-24T19:21:31.019Z,3.51
2022-11-24T19:24:02.892Z,3.53
2022-11-24T19:26:30.963Z,3.54
2022-11-24T19:28:57.163Z,3.61
2022-11-24T19:31:23.430Z,3.50
2022-11-24T19:33:49.650Z,3.47
2022-11-24T19:36:19.261Z,3.48
2022-11-24T19:38:49.123Z,3.40
2022-11-24T19:41:15.338Z,3.50
2022-11-24T19:43:41.626Z,3.25
2022-11-24T19:46:08.605Z,3.46
2022-11-24T19:48:38.548Z,3.36
2022-11-24T19:51:05.619Z,3.49
2022-11-24T19:53:31.852Z,3.57
2022-11-24T19:56:08.268Z,3.58
2022-11-24T19:58:34.511Z,3.52
2022-11-24T20:01:13.728Z,3.50
2022-11-24T20:03:40.103Z,3.57
2022-11-24T20:06:06.835Z,3.58
2022-11-24T20:08:33.336Z,3.72
2022-11-24T20:11:09.288Z,3.83
2022-11-24T20:13:35.719Z,3.89
2022-11-24T20:16:05.549Z,4.15
2022-11-24T20:18:31.823Z,4.53
2022-11-24T20:21:01.867Z,4.79
2022-11-24T20:23:28.091Z,4.91
2022-11-24T20:25:54.297Z,5.10
2022-11-24T20:28:20.500Z,5.23
2022-11-24T20:30:46.713Z,5.21
2022-11-24T20:33:12.940Z,5.24
2022-11-24T20:35:39.144Z,5.20
2022-11-24T20:38:05.384Z,5.23
2022-11-24T20:40:31.595Z,5.24
2022-11-24T20:42:57.821Z,5.32
2022-11-24T20:45:24.101Z,5.30
2022-11-24T20:47:50.359Z,5.32
2022-11-24T20:50:16.567Z,5.35
2022-11-24T20:52:42.773Z,5.34
2022-11-24T20:55:09.194Z,5.33
2022-11-24T20:57:35.409Z,5.33
2022-11-24T21:00:01.602Z,5.40
2022-11-24T21:02:27.847Z,5.39
2022-11-24T21:04:54.085Z,5.33
2022-11-24T21:07:20.337Z,5.31
2022-11-24T21:09:46.586Z,5.35
2022-11-24T21:12:12.796Z,5.33
2022-11-24T21:14:39.183Z,5.25
2022-11-24T21:17:05.544Z,5.21
2022-11-24T21:19:31.746Z,5.19
2022-11-24T21:21:57.985Z,5.21
2022-11-24T21:24:24.175Z,5.21
2022-11-24T21:26:50.932Z,5.22
2022-11-24T21:29:17.127Z,5.21
2022-11-24T21:31:43.404Z,5.21
2022-11-24T21:34:09.644Z,5.19
2022-11-24T21:36:35.841Z,5.20
2022-11-24T21:39:02.267Z,5.23
2022-11-24T21:41:28.673Z,5.19
2022-11-24T21:43:54.898Z,5.19
2022-11-24T21:46:21.172Z,5.13
2022-11-24T21:48:47.427Z,5.14
2022-11-24T21:51:14.425Z,5.12
2022-11-24T21:53:40.645Z,5.15
2022-11-24T21:56:07.615Z,5.12
2022-11-24T21:58:33.853Z,5.12
2022-11-24T22:01:06.869Z,5.12
2022-11-24T22:03:33.095Z,5.13
2022-11-24T22:05:59.576Z,5.08
2022-11-24T22:08:26.042Z,5.07
2022-11-24T22:10:52.236Z,5.09
2022-11-24T22:13:18.786Z,5.05
2022-11-24T22:15:45.067Z,5.03
2022-11-24T22:18:11.430Z,5.04
2022-11-24T22:20:37.816Z,5.03
2022-11-24T22:23:04.088Z,4.98
2022-11-24T22:25:30.301Z,4.97
2022-11-24T22:27:56.525Z,4.98
2022-11-24T22:30:25.107Z,4.94
2022-11-24T22:32:51.333Z,4.93
2022-11-24T22:35:17.546Z,4.86
2022-11-24T22:37:43.780Z,4.85
2022-11-24T22:40:10.141Z,4.82
2022-11-24T22:42:36.347Z,4.82
2022-11-24T22:45:02.548Z,4.79
2022-11-24T22:47:28.743Z,4.78
2022-11-24T22:49:54.980Z,4.78
2022-11-24T22:52:21.180Z,4.73
2022-11-24T22:54:47.388Z,4.68
2022-11-24T22:57:13.588Z,4.69
2022-11-24T22:59:39.871Z,4.64
2022-11-24T23:02:06.171Z,4.63
2022-11-24T23:04:32.506Z,4.63
2022-11-24T23:06:58.753Z,4.60
2022-11-24T23:09:24.974Z,4.59
2022-11-24T23:11:51.183Z,4.57
2022-11-24T23:14:17.426Z,4.56
2022-11-24T23:16:43.748Z,4.59
2022-11-24T23:19:10.104Z,4.57
2022-11-24T23:21:36.398Z,4.53
2022-11-24T23:24:02.876Z,4.50
2022-11-24T23:26:29.902Z,4.53
2022-11-24T23:28:56.121Z,4.50
2022-11-24T23:31:23.246Z,4.50
2022-11-24T23:33:49.478Z,4.53
2022-11-24T23:36:16.519Z,4.50
2022-11-24T23:38:42.835Z,4.48
2022-11-24T23:41:09.936Z,4.50
2022-11-24T23:43:36.542Z,4.49
2022-11-24T23:46:06.618Z,4.45
2022-11-24T23:48:32.923Z,4.42
2022-11-24T23:51:05.786Z,4.40
2022-11-24T23:53:35.123Z,4.39
2022-11-24T23:56:01.414Z,4.38
2022-11-24T23:58:27.686Z,4.36
